AirNav   Air Wisconsin Up To $57,000 Bonus
 
 1217 users online  

29MO Rollert Farm Airport
Smithville, Missouri, USA

GOING TO SMITHVILLE?


FAA INFORMATION EFFECTIVE 01 DECEMBER 2022

Location

FAA Identifier: 29MO
Lat/Long: 39-21-05.5200N 094-31-03.8400W
39-21.092000N 094-31.064000W
39.3515333,-94.5177333
(estimated)
Elevation: 1000 ft. / 305 m (estimated)
Variation: 05E (1985)
From city: 4 miles SE of SMITHVILLE, MO
Time zone: UTC -6 (UTC -5 during Daylight Saving Time)
Zip code: 64089

Airport Operations

Airport use: Private use. Permission required prior to landing
Activation date: 03/1990
Control tower: no
ARTCC: KANSAS CITY CENTER
FSS: COLUMBIA FLIGHT SERVICE STATION
Attendance: UNATNDD
Wind indicator: yes
Segmented circle: no

Airport Communications

WX ASOS at MCI (10 nm W): PHONE 816-329-2808
WX AWOS-3T at GPH (10 nm E): 120.275 (816-407-3399)
WX ASOS at MKC (14 nm S): 120.75 (816-329-2843)

Nearby radio navigation aids

VOR radial/distance  VOR name  Freq  Var
MCIr064/10.9KANSAS CITY VORTAC113.2505E
ANXr303/23.7NAPOLEON VORTAC114.0007E
BQSr238/34.1BRAYMER VOR/DME115.3503E

 
NDB name  Hdg/Dist  Freq  Var  ID
AMAZON147/36.723304EAZN .- --.. -.

Airport Services

Runway Information

Runway 17/35

Dimensions: 1200 x 60 ft. / 366 x 18 m
Surface: turf
RUNWAY 17  RUNWAY 35
Traffic pattern: rightleft
Obstructions: 50 ft. plines, 500 ft. from runway20 ft. pole, 200 ft. from runway

Airport Ownership and Management from official FAA records

Ownership: Privately-owned
Owner: FRED A. & JUDITH L. ROLLERT
5205 NE 144TH STREET
SMITHVILLE, MO 64089
Phone 816-521-0955
Manager: FRED A. & JUDITH L. ROLLERT
5205 NE 144TH STREET
SMITHVILLE, MO 64089
Phone 816-521-0955

Airport Operational Statistics

Aircraft based on the field: 1
Single engine airplanes: 1
    
Aircraft operations: 1/year *
100% local general aviation
* for 12-month period ending 27 August 2022

Additional Remarks

FOR CD CTC KANSAS CITY APCH AT 816-329-2710.

Instrument Procedures

There are no published instrument procedures at 29MO.

Some nearby airports with instrument procedures:

KMCI - Kansas City International Airport (10 nm W)
KGPH - Midwest National Air Center Airport (10 nm E)
KMKC - Charles B Wheeler Downtown Airport (14 nm S)
3EX - Excelsior Springs Memorial Airport (15 nm E)
KFLV - Sherman Army Airfield (18 nm W)
 
Loc | Ops | Rwys | IFR | FBO | Links
Com | Nav | Svcs | Stats | Notes
Area around 29MO (Rollert Farm Airport)
 
Road maps at: MapQuest Bing Google
 
Aerial photo
No photo
 
Sectional chart

 
Airport distance calculator
Flying to Rollert Farm Airport? Find the distance to fly.

From to 29MO

Sunrise and sunset
Times for 08-Dec-2022
 Local
(UTC-6)
 Zulu
(UTC)
Morning civil twilight06:5612:56
Sunrise07:2613:26
Sunset16:5422:54
Evening civil twilight17:2423:24

Current date and time
Zulu (UTC)  09-Dec-2022 00:08:18
Local (UTC-6)  08-Dec-2022 18:08:18
 
METAR
KGPH 
10nm E 
082355Z AUTO 11006KT 2SM BR OVC005 07/06 A3010 RMK AO2
KMCI 
10nm W 
082353Z 11009KT 3/4SM R19R/P6000FT BR OVC002 08/07 A3007 RMK AO2 SFC VIS 1 1/2 RAB35E45 SLP186 P0000 60001 T00830067 10089 20083 57004
KMKC 
15nm S 
082354Z 08004KT 2 1/2SM -RA BR OVC004 08/07 A3008 RMK AO2 RAB38 SLP187 P0000 60000 T00780072 10083 20078 55005
TAF
KMCI 
10nm W 
082053Z 0821/0918 11007KT 3SM -RA BR OVC005 FM090500 23006KT P6SM BKN005 FM090700 26008KT P6SM SCT010
KMKC 
15nm S 
081731Z 0818/0918 09005KT 4SM BR OVC007 FM082300 11005KT 3SM -RA BR OVC005 FM090500 VRB04KT 4SM BR OVC006 FM090700 26006KT P6SM SCT025
NOTAMs
Click for the latest NOTAMs
NOTAMs are issued by the DoD/FAA and will open in a separate window not controlled by AirNav.

 

 
 

Would you like to see your business listed on this page?

 If your business provides an interesting product or service to pilots, flight crews, aircraft, or users of the Rollert Farm Airport, you should consider listing it here.  To start the listing process, click on the button below
 
Add a business
 

Other Pages about Rollert Farm Airport

Update a link
 
Copyright © AirNav, LLC. All rights reserved. Privacy Policy  Contact